<?xml version="1.0" encoding="UTF-8" standalone="no" ?>
<gpx xmlns="http://www.topografix.com/GPX/1/1" xmlns:xsi="http://www.w3.org/2001/XMLSchema-instance" xsi:schemaLocation="http://www.topografix.com/GPX/1/1 http://www.topografix.com/GPX/1/1/gpx.xsd" version="1.1" creator="VisuGPX - https://www.visugpx.com">
  <metadata>
    <name>randonnée des paresseux mgen le 11 mai</name>
    <desc><![CDATA[belle rando dans la verdure]]></desc>
  </metadata>
  <trk>
    <name><![CDATA[ACTIVE LOG]]></name>
    <trkseg>
      <trkpt lat="45.58616" lon="1.04908">
        <ele>523.5751953</ele>
        <time>2015-05-11T12:06:41Z</time>
      </trkpt>
      <trkpt lat="45.58599" lon="1.04896">
        <ele>515.4040527</ele>
        <time>2015-05-11T12:07:31Z</time>
      </trkpt>
      <trkpt lat="45.58583" lon="1.04904">
        <ele>509.6361084</ele>
        <time>2015-05-11T12:07:53Z</time>
      </trkpt>
      <trkpt lat="45.58568" lon="1.0491">
        <ele>504.8294678</ele>
        <time>2015-05-11T12:08:10Z</time>
      </trkpt>
      <trkpt lat="45.58555" lon="1.04916">
        <ele>503.8681641</ele>
        <time>2015-05-11T12:08:26Z</time>
      </trkpt>
      <trkpt lat="45.5854" lon="1.04922">
        <ele>505.3101807</ele>
        <time>2015-05-11T12:08:44Z</time>
      </trkpt>
      <trkpt lat="45.58526" lon="1.04925">
        <ele>509.1553955</ele>
        <time>2015-05-11T12:09:01Z</time>
      </trkpt>
      <trkpt lat="45.5851" lon="1.04932">
        <ele>509.6361084</ele>
        <time>2015-05-11T12:09:15Z</time>
      </trkpt>
      <trkpt lat="45.58503" lon="1.04948">
        <ele>509.6361084</ele>
        <time>2015-05-11T12:09:33Z</time>
      </trkpt>
      <trkpt lat="45.58501" lon="1.04967">
        <ele>508.6746826</ele>
        <time>2015-05-11T12:09:51Z</time>
      </trkpt>
      <trkpt lat="45.58487" lon="1.04995">
        <ele>508.1940918</ele>
        <time>2015-05-11T12:10:14Z</time>
      </trkpt>
      <trkpt lat="45.58471" lon="1.05001">
        <ele>507.713501</ele>
        <time>2015-05-11T12:10:30Z</time>
      </trkpt>
      <trkpt lat="45.58455" lon="1.05008">
        <ele>506.7520752</ele>
        <time>2015-05-11T12:10:44Z</time>
      </trkpt>
      <trkpt lat="45.5844" lon="1.05008">
        <ele>505.3101807</ele>
        <time>2015-05-11T12:11:01Z</time>
      </trkpt>
      <trkpt lat="45.58422" lon="1.04996">
        <ele>505.7908936</ele>
        <time>2015-05-11T12:11:20Z</time>
      </trkpt>
      <trkpt lat="45.58413" lon="1.04968">
        <ele>505.3101807</ele>
        <time>2015-05-11T12:11:43Z</time>
      </trkpt>
      <trkpt lat="45.58404" lon="1.04943">
        <ele>507.2327881</ele>
        <time>2015-05-11T12:12:05Z</time>
      </trkpt>
      <trkpt lat="45.58387" lon="1.04934">
        <ele>508.1940918</ele>
        <time>2015-05-11T12:12:23Z</time>
      </trkpt>
      <trkpt lat="45.58369" lon="1.04921">
        <ele>509.1553955</ele>
        <time>2015-05-11T12:12:47Z</time>
      </trkpt>
      <trkpt lat="45.58353" lon="1.04925">
        <ele>510.59729</ele>
        <time>2015-05-11T12:13:03Z</time>
      </trkpt>
      <trkpt lat="45.58342" lon="1.04925">
        <ele>512.0394287</ele>
        <time>2015-05-11T12:13:15Z</time>
      </trkpt>
      <trkpt lat="45.5833" lon="1.04933">
        <ele>512.0394287</ele>
        <time>2015-05-11T12:13:27Z</time>
      </trkpt>
      <trkpt lat="45.58303" lon="1.0495">
        <ele>504.8294678</ele>
        <time>2015-05-11T12:13:57Z</time>
      </trkpt>
      <trkpt lat="45.58281" lon="1.04956">
        <ele>501.9455566</ele>
        <time>2015-05-11T12:14:20Z</time>
      </trkpt>
      <trkpt lat="45.58267" lon="1.04962">
        <ele>499.0615234</ele>
        <time>2015-05-11T12:14:36Z</time>
      </trkpt>
      <trkpt lat="45.58252" lon="1.04963">
        <ele>496.6583252</ele>
        <time>2015-05-11T12:14:49Z</time>
      </trkpt>
      <trkpt lat="45.58235" lon="1.04965">
        <ele>492.8129883</ele>
        <time>2015-05-11T12:15:05Z</time>
      </trkpt>
      <trkpt lat="45.58214" lon="1.04969">
        <ele>486.0837402</ele>
        <time>2015-05-11T12:15:26Z</time>
      </trkpt>
      <trkpt lat="45.582" lon="1.04971">
        <ele>484.1611328</ele>
        <time>2015-05-11T12:15:40Z</time>
      </trkpt>
      <trkpt lat="45.58188" lon="1.04966">
        <ele>483.1998291</ele>
        <time>2015-05-11T12:15:53Z</time>
      </trkpt>
      <trkpt lat="45.58179" lon="1.04952">
        <ele>481.2772217</ele>
        <time>2015-05-11T12:16:08Z</time>
      </trkpt>
      <trkpt lat="45.5816" lon="1.04953">
        <ele>481.2772217</ele>
        <time>2015-05-11T12:16:39Z</time>
      </trkpt>
      <trkpt lat="45.58148" lon="1.04967">
        <ele>478.8739014</ele>
        <time>2015-05-11T12:16:55Z</time>
      </trkpt>
      <trkpt lat="45.58136" lon="1.04971">
        <ele>477.4318848</ele>
        <time>2015-05-11T12:17:08Z</time>
      </trkpt>
      <trkpt lat="45.58124" lon="1.04975">
        <ele>472.6253662</ele>
        <time>2015-05-11T12:17:22Z</time>
      </trkpt>
      <trkpt lat="45.58098" lon="1.04979">
        <ele>463.9733887</ele>
        <time>2015-05-11T12:17:50Z</time>
      </trkpt>
      <trkpt lat="45.58078" lon="1.04972">
        <ele>458.2055664</ele>
        <time>2015-05-11T12:18:13Z</time>
      </trkpt>
      <trkpt lat="45.58068" lon="1.04967">
        <ele>455.8022461</ele>
        <time>2015-05-11T12:18:29Z</time>
      </trkpt>
      <trkpt lat="45.58049" lon="1.04959">
        <ele>453.3989258</ele>
        <time>2015-05-11T12:18:44Z</time>
      </trkpt>
      <trkpt lat="45.58033" lon="1.04957">
        <ele>450.9956055</ele>
        <time>2015-05-11T12:19:00Z</time>
      </trkpt>
      <trkpt lat="45.58021" lon="1.04954">
        <ele>450.0344238</ele>
        <time>2015-05-11T12:19:15Z</time>
      </trkpt>
      <trkpt lat="45.58003" lon="1.04953">
        <ele>447.6309814</ele>
        <time>2015-05-11T12:19:40Z</time>
      </trkpt>
      <trkpt lat="45.57967" lon="1.04969">
        <ele>444.2664795</ele>
        <time>2015-05-11T12:20:22Z</time>
      </trkpt>
      <trkpt lat="45.57941" lon="1.04978">
        <ele>441.8631592</ele>
        <time>2015-05-11T12:20:44Z</time>
      </trkpt>
      <trkpt lat="45.57918" lon="1.04989">
        <ele>442.3438721</ele>
        <time>2015-05-11T12:21:04Z</time>
      </trkpt>
      <trkpt lat="45.57906" lon="1.04996">
        <ele>440.4212646</ele>
        <time>2015-05-11T12:21:17Z</time>
      </trkpt>
      <trkpt lat="45.57895" lon="1.05009">
        <ele>438.0178223</ele>
        <time>2015-05-11T12:21:34Z</time>
      </trkpt>
      <trkpt lat="45.57877" lon="1.0503">
        <ele>438.0178223</ele>
        <time>2015-05-11T12:22:00Z</time>
      </trkpt>
      <trkpt lat="45.57864" lon="1.05046">
        <ele>430.3272705</ele>
        <time>2015-05-11T12:22:19Z</time>
      </trkpt>
      <trkpt lat="45.57854" lon="1.05056">
        <ele>422.6367188</ele>
        <time>2015-05-11T12:22:39Z</time>
      </trkpt>
      <trkpt lat="45.57862" lon="1.05069">
        <ele>416.3881836</ele>
        <time>2015-05-11T12:22:56Z</time>
      </trkpt>
      <trkpt lat="45.57875" lon="1.0508">
        <ele>410.6202393</ele>
        <time>2015-05-11T12:23:13Z</time>
      </trkpt>
      <trkpt lat="45.57888" lon="1.0509">
        <ele>405.3330078</ele>
        <time>2015-05-11T12:23:28Z</time>
      </trkpt>
      <trkpt lat="45.57901" lon="1.05094">
        <ele>400.5264893</ele>
        <time>2015-05-11T12:23:40Z</time>
      </trkpt>
      <trkpt lat="45.57916" lon="1.05095">
        <ele>396.6811523</ele>
        <time>2015-05-11T12:23:51Z</time>
      </trkpt>
      <trkpt lat="45.57908" lon="1.05118">
        <ele>392.3553467</ele>
        <time>2015-05-11T12:24:05Z</time>
      </trkpt>
      <trkpt lat="45.57895" lon="1.05126">
        <ele>390.4326172</ele>
        <time>2015-05-11T12:24:17Z</time>
      </trkpt>
      <trkpt lat="45.57883" lon="1.05145">
        <ele>388.9906006</ele>
        <time>2015-05-11T12:24:27Z</time>
      </trkpt>
      <trkpt lat="45.57877" lon="1.05157">
        <ele>385.1453857</ele>
        <time>2015-05-11T12:24:43Z</time>
      </trkpt>
      <trkpt lat="45.5787" lon="1.05174">
        <ele>379.3774414</ele>
        <time>2015-05-11T12:25:02Z</time>
      </trkpt>
      <trkpt lat="45.5786" lon="1.052">
        <ele>371.6868896</ele>
        <time>2015-05-11T12:25:27Z</time>
      </trkpt>
      <trkpt lat="45.57854" lon="1.05219">
        <ele>369.2836914</ele>
        <time>2015-05-11T12:25:42Z</time>
      </trkpt>
      <trkpt lat="45.57853" lon="1.05238">
        <ele>367.8415527</ele>
        <time>2015-05-11T12:25:56Z</time>
      </trkpt>
      <trkpt lat="45.57854" lon="1.05255">
        <ele>365.9189453</ele>
        <time>2015-05-11T12:26:11Z</time>
      </trkpt>
      <trkpt lat="45.57861" lon="1.05264">
        <ele>363.9963379</ele>
        <time>2015-05-11T12:26:27Z</time>
      </trkpt>
      <trkpt lat="45.57861" lon="1.05293">
        <ele>360.151123</ele>
        <time>2015-05-11T12:26:47Z</time>
      </trkpt>
      <trkpt lat="45.57842" lon="1.05401">
        <ele>373.1289063</ele>
        <time>2015-05-11T12:27:21Z</time>
      </trkpt>
      <trkpt lat="45.57818" lon="1.05453">
        <ele>413.0235596</ele>
        <time>2015-05-11T12:27:46Z</time>
      </trkpt>
      <trkpt lat="45.57802" lon="1.05476">
        <ele>415.9074707</ele>
        <time>2015-05-11T12:28:08Z</time>
      </trkpt>
      <trkpt lat="45.57787" lon="1.055">
        <ele>413.0235596</ele>
        <time>2015-05-11T12:28:28Z</time>
      </trkpt>
      <trkpt lat="45.57771" lon="1.05506">
        <ele>407.2556152</ele>
        <time>2015-05-11T12:28:43Z</time>
      </trkpt>
      <trkpt lat="45.57753" lon="1.05524">
        <ele>406.2943115</ele>
        <time>2015-05-11T12:29:02Z</time>
      </trkpt>
      <trkpt lat="45.5774" lon="1.05535">
        <ele>407.7363281</ele>
        <time>2015-05-11T12:29:16Z</time>
      </trkpt>
      <trkpt lat="45.57726" lon="1.05542">
        <ele>407.7363281</ele>
        <time>2015-05-11T12:29:27Z</time>
      </trkpt>
      <trkpt lat="45.5772" lon="1.05555">
        <ele>406.2943115</ele>
        <time>2015-05-11T12:29:39Z</time>
      </trkpt>
      <trkpt lat="45.57723" lon="1.05578">
        <ele>403.8911133</ele>
        <time>2015-05-11T12:29:53Z</time>
      </trkpt>
      <trkpt lat="45.5773" lon="1.05592">
        <ele>400.5264893</ele>
        <time>2015-05-11T12:30:08Z</time>
      </trkpt>
      <trkpt lat="45.57736" lon="1.05604">
        <ele>397.6424561</ele>
        <time>2015-05-11T12:30:22Z</time>
      </trkpt>
      <trkpt lat="45.57737" lon="1.05629">
        <ele>395.7198486</ele>
        <time>2015-05-11T12:30:36Z</time>
      </trkpt>
      <trkpt lat="45.57739" lon="1.05657">
        <ele>390.913208</ele>
        <time>2015-05-11T12:31:03Z</time>
      </trkpt>
      <trkpt lat="45.57728" lon="1.057">
        <ele>392.8359375</ele>
        <time>2015-05-11T12:31:26Z</time>
      </trkpt>
      <trkpt lat="45.57716" lon="1.0572">
        <ele>393.7972412</ele>
        <time>2015-05-11T12:31:43Z</time>
      </trkpt>
      <trkpt lat="45.57706" lon="1.05728">
        <ele>392.8359375</ele>
        <time>2015-05-11T12:31:55Z</time>
      </trkpt>
      <trkpt lat="45.57691" lon="1.0574">
        <ele>390.913208</ele>
        <time>2015-05-11T12:32:10Z</time>
      </trkpt>
      <trkpt lat="45.57675" lon="1.05749">
        <ele>389.9519043</ele>
        <time>2015-05-11T12:32:24Z</time>
      </trkpt>
      <trkpt lat="45.57662" lon="1.05758">
        <ele>388.5100098</ele>
        <time>2015-05-11T12:32:39Z</time>
      </trkpt>
      <trkpt lat="45.57649" lon="1.05767">
        <ele>385.6259766</ele>
        <time>2015-05-11T12:32:55Z</time>
      </trkpt>
      <trkpt lat="45.57632" lon="1.05778">
        <ele>382.2613525</ele>
        <time>2015-05-11T12:33:15Z</time>
      </trkpt>
      <trkpt lat="45.5762" lon="1.05799">
        <ele>381.7806396</ele>
        <time>2015-05-11T12:33:29Z</time>
      </trkpt>
      <trkpt lat="45.57604" lon="1.05819">
        <ele>384.184082</ele>
        <time>2015-05-11T12:33:43Z</time>
      </trkpt>
      <trkpt lat="45.57592" lon="1.05825">
        <ele>382.2613525</ele>
        <time>2015-05-11T12:33:57Z</time>
      </trkpt>
      <trkpt lat="45.57572" lon="1.05822">
        <ele>382.2613525</ele>
        <time>2015-05-11T12:34:15Z</time>
      </trkpt>
      <trkpt lat="45.57548" lon="1.05807">
        <ele>386.5874023</ele>
        <time>2015-05-11T12:34:35Z</time>
      </trkpt>
      <trkpt lat="45.57524" lon="1.05803">
        <ele>388.5100098</ele>
        <time>2015-05-11T12:35:03Z</time>
      </trkpt>
      <trkpt lat="45.57498" lon="1.05801">
        <ele>391.3937988</ele>
        <time>2015-05-11T12:35:29Z</time>
      </trkpt>
      <trkpt lat="45.57481" lon="1.05801">
        <ele>391.8745117</ele>
        <time>2015-05-11T12:35:43Z</time>
      </trkpt>
      <trkpt lat="45.57471" lon="1.05807">
        <ele>391.3937988</ele>
        <time>2015-05-11T12:35:55Z</time>
      </trkpt>
      <trkpt lat="45.57463" lon="1.05819">
        <ele>391.3937988</ele>
        <time>2015-05-11T12:36:07Z</time>
      </trkpt>
      <trkpt lat="45.57454" lon="1.05832">
        <ele>390.913208</ele>
        <time>2015-05-11T12:36:22Z</time>
      </trkpt>
      <trkpt lat="45.57445" lon="1.05845">
        <ele>389.9519043</ele>
        <time>2015-05-11T12:36:35Z</time>
      </trkpt>
      <trkpt lat="45.57434" lon="1.05847">
        <ele>389.4711914</ele>
        <time>2015-05-11T12:36:47Z</time>
      </trkpt>
      <trkpt lat="45.57421" lon="1.0586">
        <ele>389.4711914</ele>
        <time>2015-05-11T12:37:04Z</time>
      </trkpt>
      <trkpt lat="45.57386" lon="1.05858">
        <ele>389.9519043</ele>
        <time>2015-05-11T12:37:27Z</time>
      </trkpt>
      <trkpt lat="45.57361" lon="1.05865">
        <ele>390.913208</ele>
        <time>2015-05-11T12:37:44Z</time>
      </trkpt>
      <trkpt lat="45.57339" lon="1.05877">
        <ele>390.913208</ele>
        <time>2015-05-11T12:38:05Z</time>
      </trkpt>
      <trkpt lat="45.57299" lon="1.05921">
        <ele>390.913208</ele>
        <time>2015-05-11T12:38:57Z</time>
      </trkpt>
      <trkpt lat="45.57282" lon="1.05956">
        <ele>388.9906006</ele>
        <time>2015-05-11T12:39:25Z</time>
      </trkpt>
      <trkpt lat="45.57268" lon="1.05986">
        <ele>386.1066895</ele>
        <time>2015-05-11T12:39:43Z</time>
      </trkpt>
      <trkpt lat="45.57264" lon="1.06005">
        <ele>378.8968506</ele>
        <time>2015-05-11T12:39:55Z</time>
      </trkpt>
      <trkpt lat="45.57282" lon="1.06026">
        <ele>378.4161377</ele>
        <time>2015-05-11T12:40:15Z</time>
      </trkpt>
      <trkpt lat="45.573" lon="1.06037">
        <ele>374.5708008</ele>
        <time>2015-05-11T12:40:34Z</time>
      </trkpt>
      <trkpt lat="45.57317" lon="1.06059">
        <ele>372.6481934</ele>
        <time>2015-05-11T12:40:57Z</time>
      </trkpt>
      <trkpt lat="45.57342" lon="1.06074">
        <ele>370.7255859</ele>
        <time>2015-05-11T12:41:21Z</time>
      </trkpt>
      <trkpt lat="45.57355" lon="1.06091">
        <ele>369.2836914</ele>
        <time>2015-05-11T12:41:41Z</time>
      </trkpt>
      <trkpt lat="45.57362" lon="1.06141">
        <ele>370.244873</ele>
        <time>2015-05-11T12:42:10Z</time>
      </trkpt>
      <trkpt lat="45.57379" lon="1.06166">
        <ele>370.7255859</ele>
        <time>2015-05-11T12:42:31Z</time>
      </trkpt>
      <trkpt lat="45.57391" lon="1.06187">
        <ele>367.8415527</ele>
        <time>2015-05-11T12:42:52Z</time>
      </trkpt>
      <trkpt lat="45.57403" lon="1.06215">
        <ele>365.9189453</ele>
        <time>2015-05-11T12:43:13Z</time>
      </trkpt>
      <trkpt lat="45.57427" lon="1.06318">
        <ele>372.1674805</ele>
        <time>2015-05-11T12:44:35Z</time>
      </trkpt>
      <trkpt lat="45.5741" lon="1.06347">
        <ele>370.244873</ele>
        <time>2015-05-11T12:45:01Z</time>
      </trkpt>
      <trkpt lat="45.57399" lon="1.06362">
        <ele>368.3222656</ele>
        <time>2015-05-11T12:45:10Z</time>
      </trkpt>
      <trkpt lat="45.57389" lon="1.06373">
        <ele>366.880249</ele>
        <time>2015-05-11T12:45:18Z</time>
      </trkpt>
      <trkpt lat="45.57376" lon="1.06392">
        <ele>362.5543213</ele>
        <time>2015-05-11T12:45:33Z</time>
      </trkpt>
      <trkpt lat="45.57372" lon="1.06409">
        <ele>361.5931396</ele>
        <time>2015-05-11T12:45:41Z</time>
      </trkpt>
      <trkpt lat="45.57368" lon="1.06419">
        <ele>359.1896973</ele>
        <time>2015-05-11T12:45:58Z</time>
      </trkpt>
      <trkpt lat="45.57369" lon="1.0644">
        <ele>357.2670898</ele>
        <time>2015-05-11T12:46:12Z</time>
      </trkpt>
      <trkpt lat="45.57379" lon="1.06453">
        <ele>355.8251953</ele>
        <time>2015-05-11T12:46:28Z</time>
      </trkpt>
      <trkpt lat="45.57369" lon="1.06529">
        <ele>365.4383545</ele>
        <time>2015-05-11T12:46:48Z</time>
      </trkpt>
      <trkpt lat="45.57362" lon="1.06558">
        <ele>363.9963379</ele>
        <time>2015-05-11T12:48:10Z</time>
      </trkpt>
      <trkpt lat="45.57336" lon="1.0664">
        <ele>360.6317139</ele>
        <time>2015-05-11T12:49:40Z</time>
      </trkpt>
      <trkpt lat="45.57315" lon="1.06708">
        <ele>359.6704102</ele>
        <time>2015-05-11T12:51:10Z</time>
      </trkpt>
      <trkpt lat="45.5726" lon="1.06784">
        <ele>365.4383545</ele>
        <time>2015-05-11T12:52:32Z</time>
      </trkpt>
      <trkpt lat="45.57223" lon="1.06863">
        <ele>369.7642822</ele>
        <time>2015-05-11T12:53:41Z</time>
      </trkpt>
      <trkpt lat="45.57222" lon="1.06965">
        <ele>370.7255859</ele>
        <time>2015-05-11T12:55:13Z</time>
      </trkpt>
      <trkpt lat="45.57217" lon="1.07043">
        <ele>368.8029785</ele>
        <time>2015-05-11T12:56:07Z</time>
      </trkpt>
      <trkpt lat="45.57216" lon="1.07071">
        <ele>366.3995361</ele>
        <time>2015-05-11T12:56:31Z</time>
      </trkpt>
      <trkpt lat="45.5721" lon="1.0711">
        <ele>368.8029785</ele>
        <time>2015-05-11T12:56:56Z</time>
      </trkpt>
      <trkpt lat="45.57209" lon="1.0714">
        <ele>365.4383545</ele>
        <time>2015-05-11T12:57:17Z</time>
      </trkpt>
      <trkpt lat="45.5721" lon="1.07172">
        <ele>362.5543213</ele>
        <time>2015-05-11T12:57:39Z</time>
      </trkpt>
      <trkpt lat="45.57208" lon="1.07209">
        <ele>363.9963379</ele>
        <time>2015-05-11T12:58:04Z</time>
      </trkpt>
      <trkpt lat="45.57214" lon="1.07233">
        <ele>363.5157471</ele>
        <time>2015-05-11T12:58:22Z</time>
      </trkpt>
      <trkpt lat="45.57217" lon="1.07273">
        <ele>366.880249</ele>
        <time>2015-05-11T12:58:51Z</time>
      </trkpt>
      <trkpt lat="45.57213" lon="1.07316">
        <ele>369.2836914</ele>
        <time>2015-05-11T12:59:28Z</time>
      </trkpt>
      <trkpt lat="45.57215" lon="1.0736">
        <ele>370.7255859</ele>
        <time>2015-05-11T12:59:59Z</time>
      </trkpt>
      <trkpt lat="45.57214" lon="1.07399">
        <ele>370.244873</ele>
        <time>2015-05-11T13:00:22Z</time>
      </trkpt>
      <trkpt lat="45.57213" lon="1.07431">
        <ele>369.7642822</ele>
        <time>2015-05-11T13:00:50Z</time>
      </trkpt>
      <trkpt lat="45.57219" lon="1.07481">
        <ele>368.3222656</ele>
        <time>2015-05-11T13:01:38Z</time>
      </trkpt>
      <trkpt lat="45.57208" lon="1.07514">
        <ele>370.244873</ele>
        <time>2015-05-11T13:01:55Z</time>
      </trkpt>
      <trkpt lat="45.57175" lon="1.07627">
        <ele>376.9742432</ele>
        <time>2015-05-11T13:06:23Z</time>
      </trkpt>
      <trkpt lat="45.57184" lon="1.07638">
        <ele>374.0900879</ele>
        <time>2015-05-11T13:06:37Z</time>
      </trkpt>
      <trkpt lat="45.57196" lon="1.07632">
        <ele>373.6094971</ele>
        <time>2015-05-11T13:06:50Z</time>
      </trkpt>
      <trkpt lat="45.5721" lon="1.07627">
        <ele>373.1289063</ele>
        <time>2015-05-11T13:07:05Z</time>
      </trkpt>
      <trkpt lat="45.57224" lon="1.07621">
        <ele>372.6481934</ele>
        <time>2015-05-11T13:07:15Z</time>
      </trkpt>
      <trkpt lat="45.57236" lon="1.07616">
        <ele>369.7642822</ele>
        <time>2015-05-11T13:07:27Z</time>
      </trkpt>
      <trkpt lat="45.57245" lon="1.07614">
        <ele>366.880249</ele>
        <time>2015-05-11T13:07:38Z</time>
      </trkpt>
      <trkpt lat="45.57255" lon="1.0761">
        <ele>362.5543213</ele>
        <time>2015-05-11T13:07:51Z</time>
      </trkpt>
      <trkpt lat="45.57265" lon="1.076">
        <ele>357.7478027</ele>
        <time>2015-05-11T13:08:05Z</time>
      </trkpt>
      <trkpt lat="45.57274" lon="1.0759">
        <ele>352.9411621</ele>
        <time>2015-05-11T13:08:18Z</time>
      </trkpt>
      <trkpt lat="45.57281" lon="1.07579">
        <ele>348.1346436</ele>
        <time>2015-05-11T13:08:30Z</time>
      </trkpt>
      <trkpt lat="45.57285" lon="1.07568">
        <ele>343.8085938</ele>
        <time>2015-05-11T13:08:41Z</time>
      </trkpt>
      <trkpt lat="45.57295" lon="1.07557">
        <ele>346.2120361</ele>
        <time>2015-05-11T13:08:51Z</time>
      </trkpt>
      <trkpt lat="45.57307" lon="1.07549">
        <ele>349.0958252</ele>
        <time>2015-05-11T13:09:00Z</time>
      </trkpt>
      <trkpt lat="45.57315" lon="1.07539">
        <ele>351.4991455</ele>
        <time>2015-05-11T13:09:09Z</time>
      </trkpt>
      <trkpt lat="45.57323" lon="1.07528">
        <ele>348.1346436</ele>
        <time>2015-05-11T13:09:20Z</time>
      </trkpt>
      <trkpt lat="45.57328" lon="1.07516">
        <ele>348.1346436</ele>
        <time>2015-05-11T13:09:30Z</time>
      </trkpt>
      <trkpt lat="45.57337" lon="1.07504">
        <ele>348.1346436</ele>
        <time>2015-05-11T13:09:40Z</time>
      </trkpt>
      <trkpt lat="45.57344" lon="1.07493">
        <ele>346.2120361</ele>
        <time>2015-05-11T13:09:51Z</time>
      </trkpt>
      <trkpt lat="45.57352" lon="1.07478">
        <ele>347.6539307</ele>
        <time>2015-05-11T13:10:02Z</time>
      </trkpt>
      <trkpt lat="45.57365" lon="1.07467">
        <ele>349.5765381</ele>
        <time>2015-05-11T13:10:12Z</time>
      </trkpt>
      <trkpt lat="45.57373" lon="1.07454">
        <ele>349.0958252</ele>
        <time>2015-05-11T13:10:23Z</time>
      </trkpt>
      <trkpt lat="45.57385" lon="1.07442">
        <ele>351.9798584</ele>
        <time>2015-05-11T13:10:33Z</time>
      </trkpt>
      <trkpt lat="45.5739" lon="1.07431">
        <ele>347.6539307</ele>
        <time>2015-05-11T13:10:44Z</time>
      </trkpt>
      <trkpt lat="45.57398" lon="1.0742">
        <ele>344.7700195</ele>
        <time>2015-05-11T13:10:55Z</time>
      </trkpt>
      <trkpt lat="45.57402" lon="1.07405">
        <ele>342.84729</ele>
        <time>2015-05-11T13:11:06Z</time>
      </trkpt>
      <trkpt lat="45.57408" lon="1.07391">
        <ele>342.3666992</ele>
        <time>2015-05-11T13:11:18Z</time>
      </trkpt>
      <trkpt lat="45.57431" lon="1.07379">
        <ele>340.9246826</ele>
        <time>2015-05-11T13:11:51Z</time>
      </trkpt>
      <trkpt lat="45.57453" lon="1.07365">
        <ele>343.8085938</ele>
        <time>2015-05-11T13:12:08Z</time>
      </trkpt>
      <trkpt lat="45.57469" lon="1.07356">
        <ele>345.2506104</ele>
        <time>2015-05-11T13:12:23Z</time>
      </trkpt>
      <trkpt lat="45.57491" lon="1.07342">
        <ele>348.1346436</ele>
        <time>2015-05-11T13:12:40Z</time>
      </trkpt>
      <trkpt lat="45.57505" lon="1.07332">
        <ele>350.5378418</ele>
        <time>2015-05-11T13:12:51Z</time>
      </trkpt>
      <trkpt lat="45.57518" lon="1.07324">
        <ele>351.0184326</ele>
        <time>2015-05-11T13:13:02Z</time>
      </trkpt>
      <trkpt lat="45.57527" lon="1.0732">
        <ele>353.9025879</ele>
        <time>2015-05-11T13:13:11Z</time>
      </trkpt>
      <trkpt lat="45.57538" lon="1.0732">
        <ele>355.3444824</ele>
        <time>2015-05-11T13:13:21Z</time>
      </trkpt>
      <trkpt lat="45.57548" lon="1.07313">
        <ele>357.2670898</ele>
        <time>2015-05-11T13:13:32Z</time>
      </trkpt>
      <trkpt lat="45.57557" lon="1.07307">
        <ele>358.7089844</ele>
        <time>2015-05-11T13:13:42Z</time>
      </trkpt>
      <trkpt lat="45.57569" lon="1.07302">
        <ele>359.1896973</ele>
        <time>2015-05-11T13:13:54Z</time>
      </trkpt>
      <trkpt lat="45.5758" lon="1.07296">
        <ele>358.7089844</ele>
        <time>2015-05-11T13:14:04Z</time>
      </trkpt>
      <trkpt lat="45.5759" lon="1.07289">
        <ele>357.2670898</ele>
        <time>2015-05-11T13:14:17Z</time>
      </trkpt>
      <trkpt lat="45.57603" lon="1.07287">
        <ele>356.786377</ele>
        <time>2015-05-11T13:14:29Z</time>
      </trkpt>
      <trkpt lat="45.57613" lon="1.07283">
        <ele>356.3057861</ele>
        <time>2015-05-11T13:14:42Z</time>
      </trkpt>
      <trkpt lat="45.57625" lon="1.07287">
        <ele>357.7478027</ele>
        <time>2015-05-11T13:14:54Z</time>
      </trkpt>
      <trkpt lat="45.57635" lon="1.07288">
        <ele>359.6704102</ele>
        <time>2015-05-11T13:15:04Z</time>
      </trkpt>
      <trkpt lat="45.57644" lon="1.0729">
        <ele>357.2670898</ele>
        <time>2015-05-11T13:15:15Z</time>
      </trkpt>
      <trkpt lat="45.57653" lon="1.07296">
        <ele>359.1896973</ele>
        <time>2015-05-11T13:15:25Z</time>
      </trkpt>
      <trkpt lat="45.57664" lon="1.07301">
        <ele>362.5543213</ele>
        <time>2015-05-11T13:15:38Z</time>
      </trkpt>
      <trkpt lat="45.57675" lon="1.07305">
        <ele>363.5157471</ele>
        <time>2015-05-11T13:15:48Z</time>
      </trkpt>
      <trkpt lat="45.57683" lon="1.07308">
        <ele>363.0350342</ele>
        <time>2015-05-11T13:16:00Z</time>
      </trkpt>
      <trkpt lat="45.57694" lon="1.07311">
        <ele>365.9189453</ele>
        <time>2015-05-11T13:16:14Z</time>
      </trkpt>
      <trkpt lat="45.57704" lon="1.07309">
        <ele>368.3222656</ele>
        <time>2015-05-11T13:16:26Z</time>
      </trkpt>
      <trkpt lat="45.57712" lon="1.07307">
        <ele>369.7642822</ele>
        <time>2015-05-11T13:16:41Z</time>
      </trkpt>
      <trkpt lat="45.57721" lon="1.07305">
        <ele>370.7255859</ele>
        <time>2015-05-11T13:16:52Z</time>
      </trkpt>
      <trkpt lat="45.57729" lon="1.07303">
        <ele>372.6481934</ele>
        <time>2015-05-11T13:17:03Z</time>
      </trkpt>
      <trkpt lat="45.57741" lon="1.07297">
        <ele>374.0900879</ele>
        <time>2015-05-11T13:17:16Z</time>
      </trkpt>
      <trkpt lat="45.57751" lon="1.07292">
        <ele>375.5321045</ele>
        <time>2015-05-11T13:17:28Z</time>
      </trkpt>
      <trkpt lat="45.57761" lon="1.07283">
        <ele>372.6481934</ele>
        <time>2015-05-11T13:17:42Z</time>
      </trkpt>
      <trkpt lat="45.57784" lon="1.07277">
        <ele>376.4935303</ele>
        <time>2015-05-11T13:18:45Z</time>
      </trkpt>
      <trkpt lat="45.57797" lon="1.07269">
        <ele>376.4935303</ele>
        <time>2015-05-11T13:18:59Z</time>
      </trkpt>
      <trkpt lat="45.5781" lon="1.07256">
        <ele>373.6094971</ele>
        <time>2015-05-11T13:19:14Z</time>
      </trkpt>
      <trkpt lat="45.57819" lon="1.07246">
        <ele>373.1289063</ele>
        <time>2015-05-11T13:19:27Z</time>
      </trkpt>
      <trkpt lat="45.57826" lon="1.07227">
        <ele>372.6481934</ele>
        <time>2015-05-11T13:19:44Z</time>
      </trkpt>
      <trkpt lat="45.57856" lon="1.07204">
        <ele>374.0900879</ele>
        <time>2015-05-11T13:20:17Z</time>
      </trkpt>
      <trkpt lat="45.57864" lon="1.07219">
        <ele>372.6481934</ele>
        <time>2015-05-11T13:20:33Z</time>
      </trkpt>
      <trkpt lat="45.57876" lon="1.07238">
        <ele>368.8029785</ele>
        <time>2015-05-11T13:20:50Z</time>
      </trkpt>
      <trkpt lat="45.57883" lon="1.07251">
        <ele>365.9189453</ele>
        <time>2015-05-11T13:21:03Z</time>
      </trkpt>
      <trkpt lat="45.57888" lon="1.07271">
        <ele>364.9576416</ele>
        <time>2015-05-11T13:21:17Z</time>
      </trkpt>
      <trkpt lat="45.57893" lon="1.07292">
        <ele>365.4383545</ele>
        <time>2015-05-11T13:21:34Z</time>
      </trkpt>
      <trkpt lat="45.57908" lon="1.07321">
        <ele>367.3609619</ele>
        <time>2015-05-11T13:22:06Z</time>
      </trkpt>
      <trkpt lat="45.57921" lon="1.0734">
        <ele>368.8029785</ele>
        <time>2015-05-11T13:22:24Z</time>
      </trkpt>
      <trkpt lat="45.57931" lon="1.0735">
        <ele>369.7642822</ele>
        <time>2015-05-11T13:22:37Z</time>
      </trkpt>
      <trkpt lat="45.57944" lon="1.07355">
        <ele>371.2062988</ele>
        <time>2015-05-11T13:22:51Z</time>
      </trkpt>
      <trkpt lat="45.57956" lon="1.07348">
        <ele>373.1289063</ele>
        <time>2015-05-11T13:23:07Z</time>
      </trkpt>
      <trkpt lat="45.57965" lon="1.07337">
        <ele>373.1289063</ele>
        <time>2015-05-11T13:23:19Z</time>
      </trkpt>
      <trkpt lat="45.57981" lon="1.07326">
        <ele>375.5321045</ele>
        <time>2015-05-11T13:23:34Z</time>
      </trkpt>
      <trkpt lat="45.57995" lon="1.07323">
        <ele>375.5321045</ele>
        <time>2015-05-11T13:23:49Z</time>
      </trkpt>
      <trkpt lat="45.5801" lon="1.07319">
        <ele>373.6094971</ele>
        <time>2015-05-11T13:24:02Z</time>
      </trkpt>
      <trkpt lat="45.5802" lon="1.07321">
        <ele>373.6094971</ele>
        <time>2015-05-11T13:24:11Z</time>
      </trkpt>
      <trkpt lat="45.5803" lon="1.07322">
        <ele>373.1289063</ele>
        <time>2015-05-11T13:24:22Z</time>
      </trkpt>
      <trkpt lat="45.58029" lon="1.0731">
        <ele>372.1674805</ele>
        <time>2015-05-11T13:24:33Z</time>
      </trkpt>
      <trkpt lat="45.58024" lon="1.07297">
        <ele>371.2062988</ele>
        <time>2015-05-11T13:24:44Z</time>
      </trkpt>
      <trkpt lat="45.58019" lon="1.07284">
        <ele>371.6868896</ele>
        <time>2015-05-11T13:24:57Z</time>
      </trkpt>
      <trkpt lat="45.58018" lon="1.07267">
        <ele>372.6481934</ele>
        <time>2015-05-11T13:25:14Z</time>
      </trkpt>
      <trkpt lat="45.58025" lon="1.07258">
        <ele>372.6481934</ele>
        <time>2015-05-11T13:25:26Z</time>
      </trkpt>
      <trkpt lat="45.58031" lon="1.07245">
        <ele>371.6868896</ele>
        <time>2015-05-11T13:25:38Z</time>
      </trkpt>
      <trkpt lat="45.58043" lon="1.07228">
        <ele>370.7255859</ele>
        <time>2015-05-11T13:26:14Z</time>
      </trkpt>
      <trkpt lat="45.58057" lon="1.07207">
        <ele>376.4935303</ele>
        <time>2015-05-11T13:27:38Z</time>
      </trkpt>
      <trkpt lat="45.58068" lon="1.07191">
        <ele>376.9742432</ele>
        <time>2015-05-11T13:27:59Z</time>
      </trkpt>
      <trkpt lat="45.58073" lon="1.07177">
        <ele>377.454834</ele>
        <time>2015-05-11T13:28:10Z</time>
      </trkpt>
      <trkpt lat="45.58082" lon="1.07165">
        <ele>376.0128174</ele>
        <time>2015-05-11T13:28:27Z</time>
      </trkpt>
      <trkpt lat="45.58092" lon="1.07155">
        <ele>372.1674805</ele>
        <time>2015-05-11T13:28:40Z</time>
      </trkpt>
      <trkpt lat="45.58103" lon="1.07141">
        <ele>366.3995361</ele>
        <time>2015-05-11T13:28:58Z</time>
      </trkpt>
      <trkpt lat="45.58125" lon="1.07134">
        <ele>364.4769287</ele>
        <time>2015-05-11T13:30:27Z</time>
      </trkpt>
      <trkpt lat="45.58136" lon="1.07125">
        <ele>368.3222656</ele>
        <time>2015-05-11T13:30:44Z</time>
      </trkpt>
      <trkpt lat="45.58146" lon="1.07115">
        <ele>372.6481934</ele>
        <time>2015-05-11T13:31:01Z</time>
      </trkpt>
      <trkpt lat="45.58156" lon="1.07106">
        <ele>377.454834</ele>
        <time>2015-05-11T13:31:19Z</time>
      </trkpt>
      <trkpt lat="45.58167" lon="1.07097">
        <ele>381.3000488</ele>
        <time>2015-05-11T13:31:39Z</time>
      </trkpt>
      <trkpt lat="45.58171" lon="1.07083">
        <ele>382.7420654</ele>
        <time>2015-05-11T13:32:03Z</time>
      </trkpt>
      <trkpt lat="45.58182" lon="1.0705">
        <ele>391.3937988</ele>
        <time>2015-05-11T13:32:44Z</time>
      </trkpt>
      <trkpt lat="45.58191" lon="1.07035">
        <ele>399.0843506</ele>
        <time>2015-05-11T13:33:15Z</time>
      </trkpt>
      <trkpt lat="45.5821" lon="1.07015">
        <ele>404.8522949</ele>
        <time>2015-05-11T13:34:05Z</time>
      </trkpt>
      <trkpt lat="45.58225" lon="1.06991">
        <ele>406.2943115</ele>
        <time>2015-05-11T13:35:08Z</time>
      </trkpt>
      <trkpt lat="45.58244" lon="1.06967">
        <ele>406.2943115</ele>
        <time>2015-05-11T13:36:06Z</time>
      </trkpt>
      <trkpt lat="45.58271" lon="1.06907">
        <ele>414.946167</ele>
        <time>2015-05-11T13:38:27Z</time>
      </trkpt>
      <trkpt lat="45.58274" lon="1.06885">
        <ele>414.4654541</ele>
        <time>2015-05-11T13:38:49Z</time>
      </trkpt>
      <trkpt lat="45.5828" lon="1.06856">
        <ele>416.8688965</ele>
        <time>2015-05-11T13:39:19Z</time>
      </trkpt>
      <trkpt lat="45.58287" lon="1.06835">
        <ele>417.3496094</ele>
        <time>2015-05-11T13:39:43Z</time>
      </trkpt>
      <trkpt lat="45.58295" lon="1.06815">
        <ele>417.8302002</ele>
        <time>2015-05-11T13:40:09Z</time>
      </trkpt>
      <trkpt lat="45.58298" lon="1.068">
        <ele>421.675415</ele>
        <time>2015-05-11T13:40:49Z</time>
      </trkpt>
      <trkpt lat="45.58306" lon="1.06794">
        <ele>421.1948242</ele>
        <time>2015-05-11T13:46:24Z</time>
      </trkpt>
      <trkpt lat="45.58324" lon="1.06807">
        <ele>421.1948242</ele>
        <time>2015-05-11T13:46:39Z</time>
      </trkpt>
      <trkpt lat="45.58338" lon="1.06812">
        <ele>420.7141113</ele>
        <time>2015-05-11T13:46:50Z</time>
      </trkpt>
      <trkpt lat="45.58351" lon="1.06811">
        <ele>418.7915039</ele>
        <time>2015-05-11T13:46:58Z</time>
      </trkpt>
      <trkpt lat="45.58361" lon="1.06811">
        <ele>417.8302002</ele>
        <time>2015-05-11T13:47:07Z</time>
      </trkpt>
      <trkpt lat="45.58369" lon="1.06811">
        <ele>420.2333984</ele>
        <time>2015-05-11T13:47:16Z</time>
      </trkpt>
      <trkpt lat="45.58379" lon="1.0681">
        <ele>420.2333984</ele>
        <time>2015-05-11T13:47:27Z</time>
      </trkpt>
      <trkpt lat="45.5839" lon="1.06809">
        <ele>419.2722168</ele>
        <time>2015-05-11T13:47:36Z</time>
      </trkpt>
      <trkpt lat="45.58404" lon="1.06808">
        <ele>419.7528076</ele>
        <time>2015-05-11T13:47:46Z</time>
      </trkpt>
      <trkpt lat="45.58414" lon="1.06808">
        <ele>420.7141113</ele>
        <time>2015-05-11T13:47:55Z</time>
      </trkpt>
      <trkpt lat="45.58425" lon="1.06811">
        <ele>424.5594482</ele>
        <time>2015-05-11T13:48:08Z</time>
      </trkpt>
      <trkpt lat="45.58435" lon="1.06815">
        <ele>425.520752</ele>
        <time>2015-05-11T13:48:18Z</time>
      </trkpt>
      <trkpt lat="45.58445" lon="1.06819">
        <ele>425.520752</ele>
        <time>2015-05-11T13:48:28Z</time>
      </trkpt>
      <trkpt lat="45.58454" lon="1.06823">
        <ele>426.0013428</ele>
        <time>2015-05-11T13:48:38Z</time>
      </trkpt>
      <trkpt lat="45.58462" lon="1.06828">
        <ele>426.4820557</ele>
        <time>2015-05-11T13:48:47Z</time>
      </trkpt>
      <trkpt lat="45.58471" lon="1.06834">
        <ele>426.9627686</ele>
        <time>2015-05-11T13:48:57Z</time>
      </trkpt>
      <trkpt lat="45.5848" lon="1.06839">
        <ele>424.5594482</ele>
        <time>2015-05-11T13:49:06Z</time>
      </trkpt>
      <trkpt lat="45.58491" lon="1.06843">
        <ele>425.0401611</ele>
        <time>2015-05-11T13:49:19Z</time>
      </trkpt>
      <trkpt lat="45.58499" lon="1.06847">
        <ele>425.520752</ele>
        <time>2015-05-11T13:49:28Z</time>
      </trkpt>
      <trkpt lat="45.58507" lon="1.06852">
        <ele>426.9627686</ele>
        <time>2015-05-11T13:49:37Z</time>
      </trkpt>
      <trkpt lat="45.58517" lon="1.06848">
        <ele>425.520752</ele>
        <time>2015-05-11T13:49:46Z</time>
      </trkpt>
      <trkpt lat="45.58527" lon="1.06839">
        <ele>425.520752</ele>
        <time>2015-05-11T13:49:55Z</time>
      </trkpt>
      <trkpt lat="45.58536" lon="1.06826">
        <ele>424.5594482</ele>
        <time>2015-05-11T13:50:05Z</time>
      </trkpt>
      <trkpt lat="45.58543" lon="1.06815">
        <ele>425.0401611</ele>
        <time>2015-05-11T13:50:14Z</time>
      </trkpt>
      <trkpt lat="45.5855" lon="1.06803">
        <ele>425.0401611</ele>
        <time>2015-05-11T13:50:23Z</time>
      </trkpt>
      <trkpt lat="45.58554" lon="1.06791">
        <ele>424.0787354</ele>
        <time>2015-05-11T13:50:32Z</time>
      </trkpt>
      <trkpt lat="45.58556" lon="1.06776">
        <ele>422.6367188</ele>
        <time>2015-05-11T13:50:42Z</time>
      </trkpt>
      <trkpt lat="45.58555" lon="1.06761">
        <ele>421.1948242</ele>
        <time>2015-05-11T13:50:52Z</time>
      </trkpt>
      <trkpt lat="45.58558" lon="1.06747">
        <ele>419.7528076</ele>
        <time>2015-05-11T13:51:01Z</time>
      </trkpt>
      <trkpt lat="45.58564" lon="1.06735">
        <ele>417.8302002</ele>
        <time>2015-05-11T13:51:10Z</time>
      </trkpt>
      <trkpt lat="45.58568" lon="1.06722">
        <ele>416.3881836</ele>
        <time>2015-05-11T13:51:18Z</time>
      </trkpt>
      <trkpt lat="45.58571" lon="1.06707">
        <ele>416.3881836</ele>
        <time>2015-05-11T13:51:28Z</time>
      </trkpt>
      <trkpt lat="45.58575" lon="1.06693">
        <ele>417.3496094</ele>
        <time>2015-05-11T13:51:36Z</time>
      </trkpt>
      <trkpt lat="45.58582" lon="1.0668">
        <ele>418.310791</ele>
        <time>2015-05-11T13:51:47Z</time>
      </trkpt>
      <trkpt lat="45.58589" lon="1.06667">
        <ele>418.7915039</ele>
        <time>2015-05-11T13:51:57Z</time>
      </trkpt>
      <trkpt lat="45.5859" lon="1.06656">
        <ele>419.2722168</ele>
        <time>2015-05-11T13:52:07Z</time>
      </trkpt>
      <trkpt lat="45.58596" lon="1.0664">
        <ele>418.7915039</ele>
        <time>2015-05-11T13:52:16Z</time>
      </trkpt>
      <trkpt lat="45.586" lon="1.06626">
        <ele>422.6367188</ele>
        <time>2015-05-11T13:52:27Z</time>
      </trkpt>
      <trkpt lat="45.58607" lon="1.06615">
        <ele>423.5980225</ele>
        <time>2015-05-11T13:52:36Z</time>
      </trkpt>
      <trkpt lat="45.58614" lon="1.06606">
        <ele>422.6367188</ele>
        <time>2015-05-11T13:52:45Z</time>
      </trkpt>
      <trkpt lat="45.58625" lon="1.066">
        <ele>423.5980225</ele>
        <time>2015-05-11T13:53:03Z</time>
      </trkpt>
      <trkpt lat="45.5864" lon="1.06598">
        <ele>427.9239502</ele>
        <time>2015-05-11T13:55:58Z</time>
      </trkpt>
      <trkpt lat="45.58645" lon="1.06605">
        <ele>427.9239502</ele>
        <time>2015-05-11T13:56:08Z</time>
      </trkpt>
      <trkpt lat="45.58652" lon="1.06611">
        <ele>426.9627686</ele>
        <time>2015-05-11T13:56:19Z</time>
      </trkpt>
      <trkpt lat="45.58659" lon="1.06607">
        <ele>426.4820557</ele>
        <time>2015-05-11T13:56:30Z</time>
      </trkpt>
      <trkpt lat="45.58666" lon="1.06601">
        <ele>426.0013428</ele>
        <time>2015-05-11T13:56:40Z</time>
      </trkpt>
      <trkpt lat="45.58675" lon="1.06588">
        <ele>425.0401611</ele>
        <time>2015-05-11T13:57:01Z</time>
      </trkpt>
      <trkpt lat="45.58692" lon="1.06578">
        <ele>423.5980225</ele>
        <time>2015-05-11T13:57:22Z</time>
      </trkpt>
      <trkpt lat="45.58708" lon="1.06571">
        <ele>424.5594482</ele>
        <time>2015-05-11T13:57:36Z</time>
      </trkpt>
      <trkpt lat="45.58718" lon="1.06561">
        <ele>422.6367188</ele>
        <time>2015-05-11T13:57:51Z</time>
      </trkpt>
      <trkpt lat="45.58728" lon="1.06547">
        <ele>423.5980225</ele>
        <time>2015-05-11T13:58:08Z</time>
      </trkpt>
      <trkpt lat="45.58743" lon="1.06539">
        <ele>423.1174316</ele>
        <time>2015-05-11T13:58:24Z</time>
      </trkpt>
      <trkpt lat="45.58759" lon="1.06514">
        <ele>423.1174316</ele>
        <time>2015-05-11T13:58:51Z</time>
      </trkpt>
      <trkpt lat="45.58761" lon="1.065">
        <ele>424.0787354</ele>
        <time>2015-05-11T13:59:16Z</time>
      </trkpt>
      <trkpt lat="45.58755" lon="1.0649">
        <ele>422.1560059</ele>
        <time>2015-05-11T14:00:00Z</time>
      </trkpt>
      <trkpt lat="45.58746" lon="1.06456">
        <ele>426.0013428</ele>
        <time>2015-05-11T14:00:24Z</time>
      </trkpt>
      <trkpt lat="45.58757" lon="1.06427">
        <ele>438.0178223</ele>
        <time>2015-05-11T14:01:20Z</time>
      </trkpt>
      <trkpt lat="45.58763" lon="1.06417">
        <ele>448.5924072</ele>
        <time>2015-05-11T14:01:51Z</time>
      </trkpt>
      <trkpt lat="45.58776" lon="1.0641">
        <ele>452.9182129</ele>
        <time>2015-05-11T14:02:40Z</time>
      </trkpt>
      <trkpt lat="45.58793" lon="1.06405">
        <ele>453.3989258</ele>
        <time>2015-05-11T14:03:19Z</time>
      </trkpt>
      <trkpt lat="45.58803" lon="1.06407">
        <ele>456.7635498</ele>
        <time>2015-05-11T14:03:47Z</time>
      </trkpt>
      <trkpt lat="45.58815" lon="1.06395">
        <ele>459.1668701</ele>
        <time>2015-05-11T14:04:08Z</time>
      </trkpt>
      <trkpt lat="45.58822" lon="1.06386">
        <ele>461.0894775</ele>
        <time>2015-05-11T14:04:25Z</time>
      </trkpt>
      <trkpt lat="45.58831" lon="1.06378">
        <ele>463.012085</ele>
        <time>2015-05-11T14:05:00Z</time>
      </trkpt>
      <trkpt lat="45.58846" lon="1.06364">
        <ele>463.4927979</ele>
        <time>2015-05-11T14:05:40Z</time>
      </trkpt>
      <trkpt lat="45.58868" lon="1.06354">
        <ele>465.8961182</ele>
        <time>2015-05-11T14:06:30Z</time>
      </trkpt>
      <trkpt lat="45.58882" lon="1.06336">
        <ele>467.8187256</ele>
        <time>2015-05-11T14:06:57Z</time>
      </trkpt>
      <trkpt lat="45.58904" lon="1.06324">
        <ele>466.8574219</ele>
        <time>2015-05-11T14:07:28Z</time>
      </trkpt>
      <trkpt lat="45.58918" lon="1.06314">
        <ele>469.741333</ele>
        <time>2015-05-11T14:07:49Z</time>
      </trkpt>
      <trkpt lat="45.58928" lon="1.06292">
        <ele>471.1833496</ele>
        <time>2015-05-11T14:08:11Z</time>
      </trkpt>
      <trkpt lat="45.58928" lon="1.06273">
        <ele>473.1060791</ele>
        <time>2015-05-11T14:08:29Z</time>
      </trkpt>
      <trkpt lat="45.58921" lon="1.06247">
        <ele>476.9512939</ele>
        <time>2015-05-11T14:09:10Z</time>
      </trkpt>
      <trkpt lat="45.58908" lon="1.06213">
        <ele>479.835083</ele>
        <time>2015-05-11T14:10:25Z</time>
      </trkpt>
      <trkpt lat="45.58896" lon="1.062">
        <ele>481.2772217</ele>
        <time>2015-05-11T14:10:46Z</time>
      </trkpt>
      <trkpt lat="45.58882" lon="1.06187">
        <ele>481.2772217</ele>
        <time>2015-05-11T14:11:03Z</time>
      </trkpt>
      <trkpt lat="45.58873" lon="1.06168">
        <ele>477.4318848</ele>
        <time>2015-05-11T14:12:01Z</time>
      </trkpt>
      <trkpt lat="45.58879" lon="1.06146">
        <ele>483.1998291</ele>
        <time>2015-05-11T14:12:32Z</time>
      </trkpt>
      <trkpt lat="45.58885" lon="1.06133">
        <ele>485.1224365</ele>
        <time>2015-05-11T14:12:59Z</time>
      </trkpt>
      <trkpt lat="45.5889" lon="1.06121">
        <ele>490.8903809</ele>
        <time>2015-05-11T14:13:31Z</time>
      </trkpt>
      <trkpt lat="45.58895" lon="1.06108">
        <ele>490.40979</ele>
        <time>2015-05-11T14:13:43Z</time>
      </trkpt>
      <trkpt lat="45.58901" lon="1.06095">
        <ele>490.8903809</ele>
        <time>2015-05-11T14:14:01Z</time>
      </trkpt>
      <trkpt lat="45.58907" lon="1.06078">
        <ele>494.2550049</ele>
        <time>2015-05-11T14:14:23Z</time>
      </trkpt>
      <trkpt lat="45.58914" lon="1.06061">
        <ele>500.0229492</ele>
        <time>2015-05-11T14:15:05Z</time>
      </trkpt>
      <trkpt lat="45.58917" lon="1.06046">
        <ele>498.1003418</ele>
        <time>2015-05-11T14:15:27Z</time>
      </trkpt>
      <trkpt lat="45.58925" lon="1.06029">
        <ele>499.0615234</ele>
        <time>2015-05-11T14:15:43Z</time>
      </trkpt>
      <trkpt lat="45.58924" lon="1.06015">
        <ele>498.1003418</ele>
        <time>2015-05-11T14:15:59Z</time>
      </trkpt>
      <trkpt lat="45.58929" lon="1.06">
        <ele>499.5422363</ele>
        <time>2015-05-11T14:16:23Z</time>
      </trkpt>
      <trkpt lat="45.58936" lon="1.05989">
        <ele>502.9067383</ele>
        <time>2015-05-11T14:16:46Z</time>
      </trkpt>
      <trkpt lat="45.58944" lon="1.05979">
        <ele>503.3874512</ele>
        <time>2015-05-11T14:17:01Z</time>
      </trkpt>
      <trkpt lat="45.58952" lon="1.05966">
        <ele>506.7520752</ele>
        <time>2015-05-11T14:17:23Z</time>
      </trkpt>
      <trkpt lat="45.58953" lon="1.05951">
        <ele>507.2327881</ele>
        <time>2015-05-11T14:18:08Z</time>
      </trkpt>
      <trkpt lat="45.5896" lon="1.05942">
        <ele>510.1166992</ele>
        <time>2015-05-11T14:18:31Z</time>
      </trkpt>
      <trkpt lat="45.58968" lon="1.05929">
        <ele>509.6361084</ele>
        <time>2015-05-11T14:18:49Z</time>
      </trkpt>
      <trkpt lat="45.58977" lon="1.05915">
        <ele>510.59729</ele>
        <time>2015-05-11T14:19:03Z</time>
      </trkpt>
      <trkpt lat="45.58986" lon="1.05902">
        <ele>510.1166992</ele>
        <time>2015-05-11T14:19:15Z</time>
      </trkpt>
      <trkpt lat="45.58994" lon="1.05887">
        <ele>509.1553955</ele>
        <time>2015-05-11T14:19:27Z</time>
      </trkpt>
      <trkpt lat="45.58999" lon="1.05874">
        <ele>508.6746826</ele>
        <time>2015-05-11T14:19:39Z</time>
      </trkpt>
      <trkpt lat="45.59003" lon="1.05861">
        <ele>507.2327881</ele>
        <time>2015-05-11T14:19:53Z</time>
      </trkpt>
      <trkpt lat="45.59008" lon="1.05847">
        <ele>507.2327881</ele>
        <time>2015-05-11T14:20:08Z</time>
      </trkpt>
      <trkpt lat="45.59016" lon="1.05836">
        <ele>508.1940918</ele>
        <time>2015-05-11T14:20:21Z</time>
      </trkpt>
      <trkpt lat="45.59026" lon="1.05824">
        <ele>509.1553955</ele>
        <time>2015-05-11T14:20:35Z</time>
      </trkpt>
      <trkpt lat="45.59032" lon="1.05815">
        <ele>509.1553955</ele>
        <time>2015-05-11T14:20:47Z</time>
      </trkpt>
      <trkpt lat="45.59046" lon="1.05806">
        <ele>507.713501</ele>
        <time>2015-05-11T14:21:01Z</time>
      </trkpt>
      <trkpt lat="45.59054" lon="1.05794">
        <ele>506.7520752</ele>
        <time>2015-05-11T14:21:14Z</time>
      </trkpt>
      <trkpt lat="45.59065" lon="1.05778">
        <ele>505.3101807</ele>
        <time>2015-05-11T14:21:29Z</time>
      </trkpt>
      <trkpt lat="45.59089" lon="1.0575">
        <ele>506.2714844</ele>
        <time>2015-05-11T14:22:00Z</time>
      </trkpt>
      <trkpt lat="45.59115" lon="1.05722">
        <ele>508.6746826</ele>
        <time>2015-05-11T14:22:29Z</time>
      </trkpt>
      <trkpt lat="45.59145" lon="1.05679">
        <ele>512.5200195</ele>
        <time>2015-05-11T14:23:13Z</time>
      </trkpt>
      <trkpt lat="45.59153" lon="1.05663">
        <ele>512.5200195</ele>
        <time>2015-05-11T14:23:26Z</time>
      </trkpt>
      <trkpt lat="45.59167" lon="1.05644">
        <ele>515.4040527</ele>
        <time>2015-05-11T14:23:48Z</time>
      </trkpt>
      <trkpt lat="45.59181" lon="1.0563">
        <ele>517.3266602</ele>
        <time>2015-05-11T14:24:04Z</time>
      </trkpt>
      <trkpt lat="45.59194" lon="1.05619">
        <ele>517.807251</ele>
        <time>2015-05-11T14:24:27Z</time>
      </trkpt>
      <trkpt lat="45.59207" lon="1.0562">
        <ele>517.807251</ele>
        <time>2015-05-11T14:24:47Z</time>
      </trkpt>
      <trkpt lat="45.59228" lon="1.05622">
        <ele>519.2492676</ele>
        <time>2015-05-11T14:25:12Z</time>
      </trkpt>
      <trkpt lat="45.59241" lon="1.05629">
        <ele>522.6138916</ele>
        <time>2015-05-11T14:25:29Z</time>
      </trkpt>
      <trkpt lat="45.59255" lon="1.05627">
        <ele>522.6138916</ele>
        <time>2015-05-11T14:25:51Z</time>
      </trkpt>
      <trkpt lat="45.59272" lon="1.0563">
        <ele>525.9783936</ele>
        <time>2015-05-11T14:26:08Z</time>
      </trkpt>
      <trkpt lat="45.59288" lon="1.0562">
        <ele>526.4591064</ele>
        <time>2015-05-11T14:26:37Z</time>
      </trkpt>
      <trkpt lat="45.59304" lon="1.05596">
        <ele>526.9398193</ele>
        <time>2015-05-11T14:27:03Z</time>
      </trkpt>
      <trkpt lat="45.59308" lon="1.05578">
        <ele>524.536499</ele>
        <time>2015-05-11T14:27:38Z</time>
      </trkpt>
      <trkpt lat="45.59319" lon="1.05558">
        <ele>522.1331787</ele>
        <time>2015-05-11T14:27:54Z</time>
      </trkpt>
      <trkpt lat="45.59324" lon="1.0554">
        <ele>517.3266602</ele>
        <time>2015-05-11T14:28:10Z</time>
      </trkpt>
      <trkpt lat="45.59329" lon="1.05526">
        <ele>514.442627</ele>
        <time>2015-05-11T14:28:25Z</time>
      </trkpt>
      <trkpt lat="45.59336" lon="1.05514">
        <ele>514.442627</ele>
        <time>2015-05-11T14:28:39Z</time>
      </trkpt>
      <trkpt lat="45.59344" lon="1.05497">
        <ele>516.3652344</ele>
        <time>2015-05-11T14:28:55Z</time>
      </trkpt>
      <trkpt lat="45.59349" lon="1.0548">
        <ele>518.7685547</ele>
        <time>2015-05-11T14:29:11Z</time>
      </trkpt>
      <trkpt lat="45.59351" lon="1.05462">
        <ele>519.7298584</ele>
        <time>2015-05-11T14:29:25Z</time>
      </trkpt>
      <trkpt lat="45.59352" lon="1.05446">
        <ele>518.7685547</ele>
        <time>2015-05-11T14:29:39Z</time>
      </trkpt>
      <trkpt lat="45.59351" lon="1.05429">
        <ele>515.8846436</ele>
        <time>2015-05-11T14:29:52Z</time>
      </trkpt>
      <trkpt lat="45.59346" lon="1.05411">
        <ele>512.5200195</ele>
        <time>2015-05-11T14:30:05Z</time>
      </trkpt>
      <trkpt lat="45.59347" lon="1.05391">
        <ele>508.6746826</ele>
        <time>2015-05-11T14:30:19Z</time>
      </trkpt>
      <trkpt lat="45.59344" lon="1.05368">
        <ele>504.8294678</ele>
        <time>2015-05-11T14:30:36Z</time>
      </trkpt>
      <trkpt lat="45.5934" lon="1.05341">
        <ele>502.4261475</ele>
        <time>2015-05-11T14:31:01Z</time>
      </trkpt>
      <trkpt lat="45.59344" lon="1.05326">
        <ele>502.4261475</ele>
        <time>2015-05-11T14:31:15Z</time>
      </trkpt>
      <trkpt lat="45.59353" lon="1.05306">
        <ele>509.1553955</ele>
        <time>2015-05-11T14:31:28Z</time>
      </trkpt>
      <trkpt lat="45.59358" lon="1.05293">
        <ele>513.4814453</ele>
        <time>2015-05-11T14:31:41Z</time>
      </trkpt>
      <trkpt lat="45.59362" lon="1.0528">
        <ele>516.8459473</ele>
        <time>2015-05-11T14:31:54Z</time>
      </trkpt>
      <trkpt lat="45.5936" lon="1.05265">
        <ele>519.7298584</ele>
        <time>2015-05-11T14:32:08Z</time>
      </trkpt>
      <trkpt lat="45.59354" lon="1.05259">
        <ele>523.0946045</ele>
        <time>2015-05-11T14:33:45Z</time>
      </trkpt>
      <trkpt lat="45.59345" lon="1.05251">
        <ele>523.0946045</ele>
        <time>2015-05-11T14:33:56Z</time>
      </trkpt>
      <trkpt lat="45.59338" lon="1.05248">
        <ele>524.0557861</ele>
        <time>2015-05-11T14:34:07Z</time>
      </trkpt>
      <trkpt lat="45.59324" lon="1.05239">
        <ele>525.4978027</ele>
        <time>2015-05-11T14:34:27Z</time>
      </trkpt>
      <trkpt lat="45.59316" lon="1.0523">
        <ele>523.5751953</ele>
        <time>2015-05-11T14:34:39Z</time>
      </trkpt>
      <trkpt lat="45.59309" lon="1.0523">
        <ele>521.6525879</ele>
        <time>2015-05-11T14:34:49Z</time>
      </trkpt>
      <trkpt lat="45.593" lon="1.05224">
        <ele>521.1719971</ele>
        <time>2015-05-11T14:35:00Z</time>
      </trkpt>
      <trkpt lat="45.59291" lon="1.0522">
        <ele>524.0557861</ele>
        <time>2015-05-11T14:35:26Z</time>
      </trkpt>
      <trkpt lat="45.59283" lon="1.05215">
        <ele>524.0557861</ele>
        <time>2015-05-11T14:35:38Z</time>
      </trkpt>
      <trkpt lat="45.59274" lon="1.0521">
        <ele>524.0557861</ele>
        <time>2015-05-11T14:35:49Z</time>
      </trkpt>
      <trkpt lat="45.59263" lon="1.05216">
        <ele>525.0172119</ele>
        <time>2015-05-11T14:36:08Z</time>
      </trkpt>
      <trkpt lat="45.59249" lon="1.05214">
        <ele>525.0172119</ele>
        <time>2015-05-11T14:36:22Z</time>
      </trkpt>
      <trkpt lat="45.5924" lon="1.05207">
        <ele>524.0557861</ele>
        <time>2015-05-11T14:36:33Z</time>
      </trkpt>
      <trkpt lat="45.59229" lon="1.052">
        <ele>523.0946045</ele>
        <time>2015-05-11T14:36:46Z</time>
      </trkpt>
      <trkpt lat="45.59218" lon="1.0519">
        <ele>523.0946045</ele>
        <time>2015-05-11T14:37:03Z</time>
      </trkpt>
      <trkpt lat="45.59208" lon="1.05197">
        <ele>523.0946045</ele>
        <time>2015-05-11T14:37:16Z</time>
      </trkpt>
      <trkpt lat="45.59198" lon="1.05201">
        <ele>522.6138916</ele>
        <time>2015-05-11T14:37:31Z</time>
      </trkpt>
      <trkpt lat="45.59182" lon="1.0519">
        <ele>523.0946045</ele>
        <time>2015-05-11T14:37:50Z</time>
      </trkpt>
      <trkpt lat="45.59159" lon="1.05178">
        <ele>523.5751953</ele>
        <time>2015-05-11T14:38:15Z</time>
      </trkpt>
      <trkpt lat="45.59149" lon="1.05175">
        <ele>523.0946045</ele>
        <time>2015-05-11T14:38:25Z</time>
      </trkpt>
      <trkpt lat="45.59139" lon="1.05177">
        <ele>522.1331787</ele>
        <time>2015-05-11T14:38:35Z</time>
      </trkpt>
      <trkpt lat="45.59129" lon="1.05176">
        <ele>520.2105713</ele>
        <time>2015-05-11T14:38:45Z</time>
      </trkpt>
      <trkpt lat="45.59119" lon="1.05175">
        <ele>520.2105713</ele>
        <time>2015-05-11T14:38:55Z</time>
      </trkpt>
      <trkpt lat="45.59109" lon="1.05172">
        <ele>522.6138916</ele>
        <time>2015-05-11T14:39:05Z</time>
      </trkpt>
      <trkpt lat="45.59099" lon="1.05173">
        <ele>524.0557861</ele>
        <time>2015-05-11T14:39:16Z</time>
      </trkpt>
      <trkpt lat="45.59086" lon="1.05172">
        <ele>525.4978027</ele>
        <time>2015-05-11T14:39:27Z</time>
      </trkpt>
      <trkpt lat="45.59076" lon="1.05167">
        <ele>526.4591064</ele>
        <time>2015-05-11T14:39:37Z</time>
      </trkpt>
      <trkpt lat="45.59065" lon="1.05166">
        <ele>525.0172119</ele>
        <time>2015-05-11T14:39:47Z</time>
      </trkpt>
      <trkpt lat="45.59053" lon="1.05165">
        <ele>523.0946045</ele>
        <time>2015-05-11T14:39:57Z</time>
      </trkpt>
      <trkpt lat="45.59045" lon="1.05161">
        <ele>525.0172119</ele>
        <time>2015-05-11T14:40:06Z</time>
      </trkpt>
      <trkpt lat="45.59034" lon="1.05153">
        <ele>524.536499</ele>
        <time>2015-05-11T14:40:16Z</time>
      </trkpt>
      <trkpt lat="45.59023" lon="1.05149">
        <ele>523.0946045</ele>
        <time>2015-05-11T14:40:28Z</time>
      </trkpt>
      <trkpt lat="45.59015" lon="1.05138">
        <ele>522.1331787</ele>
        <time>2015-05-11T14:40:36Z</time>
      </trkpt>
      <trkpt lat="45.59004" lon="1.05128">
        <ele>522.1331787</ele>
        <time>2015-05-11T14:40:46Z</time>
      </trkpt>
      <trkpt lat="45.58994" lon="1.05117">
        <ele>522.1331787</ele>
        <time>2015-05-11T14:40:56Z</time>
      </trkpt>
      <trkpt lat="45.58986" lon="1.05111">
        <ele>520.2105713</ele>
        <time>2015-05-11T14:41:05Z</time>
      </trkpt>
      <trkpt lat="45.58977" lon="1.05101">
        <ele>521.1719971</ele>
        <time>2015-05-11T14:41:16Z</time>
      </trkpt>
      <trkpt lat="45.58967" lon="1.0509">
        <ele>522.6138916</ele>
        <time>2015-05-11T14:41:31Z</time>
      </trkpt>
      <trkpt lat="45.58956" lon="1.05081">
        <ele>523.5751953</ele>
        <time>2015-05-11T14:41:42Z</time>
      </trkpt>
      <trkpt lat="45.58944" lon="1.05072">
        <ele>524.0557861</ele>
        <time>2015-05-11T14:41:53Z</time>
      </trkpt>
      <trkpt lat="45.58932" lon="1.05063">
        <ele>524.536499</ele>
        <time>2015-05-11T14:42:06Z</time>
      </trkpt>
      <trkpt lat="45.58922" lon="1.05057">
        <ele>526.9398193</ele>
        <time>2015-05-11T14:42:17Z</time>
      </trkpt>
      <trkpt lat="45.58911" lon="1.05052">
        <ele>531.2657471</ele>
        <time>2015-05-11T14:42:32Z</time>
      </trkpt>
      <trkpt lat="45.58898" lon="1.05036">
        <ele>535.5915527</ele>
        <time>2015-05-11T14:42:49Z</time>
      </trkpt>
      <trkpt lat="45.58887" lon="1.05018">
        <ele>539.9176025</ele>
        <time>2015-05-11T14:43:04Z</time>
      </trkpt>
      <trkpt lat="45.58869" lon="1.04992">
        <ele>546.1662598</ele>
        <time>2015-05-11T14:43:26Z</time>
      </trkpt>
      <trkpt lat="45.58856" lon="1.04979">
        <ele>550.4921875</ele>
        <time>2015-05-11T14:43:43Z</time>
      </trkpt>
      <trkpt lat="45.58842" lon="1.04966">
        <ele>553.3759766</ele>
        <time>2015-05-11T14:44:03Z</time>
      </trkpt>
      <trkpt lat="45.5883" lon="1.04954">
        <ele>554.3374023</ele>
        <time>2015-05-11T14:44:19Z</time>
      </trkpt>
      <trkpt lat="45.58815" lon="1.04943">
        <ele>553.8566895</ele>
        <time>2015-05-11T14:44:36Z</time>
      </trkpt>
      <trkpt lat="45.58799" lon="1.04933">
        <ele>553.3759766</ele>
        <time>2015-05-11T14:44:54Z</time>
      </trkpt>
      <trkpt lat="45.58787" lon="1.04924">
        <ele>546.6468506</ele>
        <time>2015-05-11T14:45:08Z</time>
      </trkpt>
      <trkpt lat="45.58776" lon="1.04922">
        <ele>544.7242432</ele>
        <time>2015-05-11T14:45:20Z</time>
      </trkpt>
      <trkpt lat="45.58759" lon="1.04918">
        <ele>541.3594971</ele>
        <time>2015-05-11T14:45:39Z</time>
      </trkpt>
      <trkpt lat="45.58746" lon="1.04915">
        <ele>538.475708</ele>
        <time>2015-05-11T14:45:51Z</time>
      </trkpt>
      <trkpt lat="45.58733" lon="1.04912">
        <ele>535.1109619</ele>
        <time>2015-05-11T14:46:03Z</time>
      </trkpt>
      <trkpt lat="45.58722" lon="1.04912">
        <ele>531.7463379</ele>
        <time>2015-05-11T14:46:14Z</time>
      </trkpt>
      <trkpt lat="45.58711" lon="1.04912">
        <ele>527.4204102</ele>
        <time>2015-05-11T14:46:27Z</time>
      </trkpt>
      <trkpt lat="45.58694" lon="1.04908">
        <ele>525.0172119</ele>
        <time>2015-05-11T14:47:07Z</time>
      </trkpt>
      <trkpt lat="45.58679" lon="1.04909">
        <ele>523.5751953</ele>
        <time>2015-05-11T14:47:29Z</time>
      </trkpt>
      <trkpt lat="45.58663" lon="1.04903">
        <ele>521.6525879</ele>
        <time>2015-05-11T14:47:59Z</time>
      </trkpt>
      <trkpt lat="45.5865" lon="1.04905">
        <ele>520.2105713</ele>
        <time>2015-05-11T14:48:16Z</time>
      </trkpt>
      <trkpt lat="45.58647" lon="1.04916">
        <ele>520.6912842</ele>
        <time>2015-05-11T14:48:30Z</time>
      </trkpt>
      <trkpt lat="45.58655" lon="1.04926">
        <ele>519.2492676</ele>
        <time>2015-05-11T14:48:44Z</time>
      </trkpt>
      <trkpt lat="45.58662" lon="1.04941">
        <ele>520.2105713</ele>
        <time>2015-05-11T14:49:09Z</time>
      </trkpt>
      <trkpt lat="45.58667" lon="1.04955">
        <ele>523.5751953</ele>
        <time>2015-05-11T14:49:21Z</time>
      </trkpt>
      <trkpt lat="45.58669" lon="1.04965">
        <ele>524.0557861</ele>
        <time>2015-05-11T14:49:46Z</time>
      </trkpt>
      <trkpt lat="45.5867" lon="1.04983">
        <ele>522.6138916</ele>
        <time>2015-05-11T14:50:18Z</time>
      </trkpt>
      <trkpt lat="45.58669" lon="1.04983">
        <ele>523.5751953</ele>
        <time>2015-05-11T14:51:00Z</time>
      </trkpt>
    </trkseg>
  </trk>
</gpx>